sensor_id;sensor_type;location;lat;lon;timestamp;P1;durP1;ratioP1;P2;durP2;ratioP2
57561;SDS011;43397;51.530;5.974;2023-05-17T00:01:39;17.63;;;10.05;;
57561;SDS011;43397;51.530;5.974;2023-05-17T00:04:04;16.67;;;9.55;;
57561;SDS011;43397;51.530;5.974;2023-05-17T00:06:30;23.10;;;9.27;;
57561;SDS011;43397;51.530;5.974;2023-05-17T00:08:57;20.40;;;9.60;;
57561;SDS011;43397;51.530;5.974;2023-05-17T00:11:23;18.42;;;10.95;;
57561;SDS011;43397;51.530;5.974;2023-05-17T00:13:48;26.15;;;10.77;;
57561;SDS011;43397;51.530;5.974;2023-05-17T00:16:14;20.08;;;9.57;;
57561;SDS011;43397;51.530;5.974;2023-05-17T00:18:40;17.42;;;9.63;;
57561;SDS011;43397;51.530;5.974;2023-05-17T00:21:05;17.25;;;9.98;;
57561;SDS011;43397;51.530;5.974;2023-05-17T00:23:31;19.58;;;9.20;;
57561;SDS011;43397;51.530;5.974;2023-05-17T00:25:58;21.27;;;10.05;;
57561;SDS011;43397;51.530;5.974;2023-05-17T00:28:24;23.92;;;10.35;;
57561;SDS011;43397;51.530;5.974;2023-05-17T00:30:49;26.17;;;11.43;;
57561;SDS011;43397;51.530;5.974;2023-05-17T00:33:15;20.50;;;11.13;;
57561;SDS011;43397;51.530;5.974;2023-05-17T00:35:41;20.92;;;10.52;;
57561;SDS011;43397;51.530;5.974;2023-05-17T00:38:06;20.70;;;11.18;;
57561;SDS011;43397;51.530;5.974;2023-05-17T00:40:32;25.55;;;12.00;;
57561;SDS011;43397;51.530;5.974;2023-05-17T00:42:59;23.08;;;10.68;;
57561;SDS011;43397;51.530;5.974;2023-05-17T00:45:25;19.92;;;10.25;;
57561;SDS011;43397;51.530;5.974;2023-05-17T00:47:50;26.42;;;11.30;;
57561;SDS011;43397;51.530;5.974;2023-05-17T00:50:16;22.02;;;11.10;;
57561;SDS011;43397;51.530;5.974;2023-05-17T00:52:42;24.55;;;10.70;;
57561;SDS011;43397;51.530;5.974;2023-05-17T00:55:08;18.42;;;11.57;;
57561;SDS011;43397;51.530;5.974;2023-05-17T00:57:34;21.52;;;11.73;;
57561;SDS011;43397;51.530;5.974;2023-05-17T01:00:01;21.58;;;10.75;;
57561;SDS011;43397;51.530;5.974;2023-05-17T01:02:27;22.70;;;10.95;;
57561;SDS011;43397;51.530;5.974;2023-05-17T01:04:53;23.88;;;10.95;;
57561;SDS011;43397;51.530;5.974;2023-05-17T01:07:19;23.17;;;11.30;;
57561;SDS011;43397;51.530;5.974;2023-05-17T01:09:44;19.17;;;9.98;;
57561;SDS011;43397;51.530;5.974;2023-05-17T01:12:13;18.08;;;10.68;;
57561;SDS011;43397;51.530;5.974;2023-05-17T01:14:50;22.08;;;10.65;;
57561;SDS011;43397;51.530;5.974;2023-05-17T01:17:26;23.63;;;12.25;;
57561;SDS011;43397;51.530;5.974;2023-05-17T01:20:00;29.10;;;11.85;;
57561;SDS011;43397;51.530;5.974;2023-05-17T01:22:31;26.63;;;11.30;;
57561;SDS011;43397;51.530;5.974;2023-05-17T01:25:06;26.08;;;11.60;;
57561;SDS011;43397;51.530;5.974;2023-05-17T01:27:42;24.50;;;11.52;;
57561;SDS011;43397;51.530;5.974;2023-05-17T01:30:12;25.15;;;11.05;;
57561;SDS011;43397;51.530;5.974;2023-05-17T01:32:40;25.77;;;11.88;;
57561;SDS011;43397;51.530;5.974;2023-05-17T01:35:06;24.17;;;11.98;;
57561;SDS011;43397;51.530;5.974;2023-05-17T01:37:32;31.70;;;12.35;;
57561;SDS011;43397;51.530;5.974;2023-05-17T01:39:58;22.00;;;12.30;;
57561;SDS011;43397;51.530;5.974;2023-05-17T01:42:26;27.45;;;11.98;;
57561;SDS011;43397;51.530;5.974;2023-05-17T01:44:58;24.30;;;9.98;;
57561;SDS011;43397;51.530;5.974;2023-05-17T01:47:28;18.02;;;10.55;;
57561;SDS011;43397;51.530;5.974;2023-05-17T01:50:03;26.25;;;11.25;;
57561;SDS011;43397;51.530;5.974;2023-05-17T01:52:34;30.45;;;12.55;;
57561;SDS011;43397;51.530;5.974;2023-05-17T01:55:04;27.73;;;11.10;;
57561;SDS011;43397;51.530;5.974;2023-05-17T01:57:34;24.48;;;10.73;;
57561;SDS011;43397;51.530;5.974;2023-05-17T02:00:03;24.10;;;10.70;;
57561;SDS011;43397;51.530;5.974;2023-05-17T02:02:31;21.65;;;11.65;;
57561;SDS011;43397;51.530;5.974;2023-05-17T02:04:56;22.73;;;10.93;;
57561;SDS011;43397;51.530;5.974;2023-05-17T02:07:22;18.75;;;10.52;;
57561;SDS011;43397;51.530;5.974;2023-05-17T02:09:48;24.52;;;10.95;;
57561;SDS011;43397;51.530;5.974;2023-05-17T02:12:13;25.35;;;10.77;;
57561;SDS011;43397;51.530;5.974;2023-05-17T02:14:39;23.58;;;10.98;;
57561;SDS011;43397;51.530;5.974;2023-05-17T02:17:06;26.30;;;11.63;;
57561;SDS011;43397;51.530;5.974;2023-05-17T02:19:32;27.00;;;11.82;;
57561;SDS011;43397;51.530;5.974;2023-05-17T02:21:57;25.25;;;10.43;;
57561;SDS011;43397;51.530;5.974;2023-05-17T02:24:23;23.63;;;10.80;;
57561;SDS011;43397;51.530;5.974;2023-05-17T02:26:49;24.23;;;9.48;;
57561;SDS011;43397;51.530;5.974;2023-05-17T02:29:15;18.17;;;9.32;;
57561;SDS011;43397;51.530;5.974;2023-05-17T02:31:40;18.58;;;9.23;;
57561;SDS011;43397;51.530;5.974;2023-05-17T02:34:07;21.42;;;9.73;;
57561;SDS011;43397;51.530;5.974;2023-05-17T02:36:33;18.35;;;8.70;;
57561;SDS011;43397;51.530;5.974;2023-05-17T02:38:58;18.52;;;8.23;;
57561;SDS011;43397;51.530;5.974;2023-05-17T02:41:24;22.75;;;9.25;;
57561;SDS011;43397;51.530;5.974;2023-05-17T02:43:50;29.00;;;9.73;;
57561;SDS011;43397;51.530;5.974;2023-05-17T02:46:15;20.63;;;8.73;;
57561;SDS011;43397;51.530;5.974;2023-05-17T02:48:41;22.35;;;9.48;;
57561;SDS011;43397;51.530;5.974;2023-05-17T02:51:08;24.05;;;9.98;;
57561;SDS011;43397;51.530;5.974;2023-05-17T02:53:34;27.33;;;11.10;;
57561;SDS011;43397;51.530;5.974;2023-05-17T02:55:59;28.50;;;11.40;;
57561;SDS011;43397;51.530;5.974;2023-05-17T02:58:25;26.13;;;11.77;;
57561;SDS011;43397;51.530;5.974;2023-05-17T03:00:51;28.02;;;12.68;;
57561;SDS011;43397;51.530;5.974;2023-05-17T03:03:16;24.90;;;12.25;;
57561;SDS011;43397;51.530;5.974;2023-05-17T03:05:42;28.55;;;12.93;;
57561;SDS011;43397;51.530;5.974;2023-05-17T03:08:09;24.13;;;12.13;;
57561;SDS011;43397;51.530;5.974;2023-05-17T03:10:35;23.92;;;12.55;;
57561;SDS011;43397;51.530;5.974;2023-05-17T03:13:00;24.45;;;11.23;;
57561;SDS011;43397;51.530;5.974;2023-05-17T03:15:26;25.10;;;11.02;;
57561;SDS011;43397;51.530;5.974;2023-05-17T03:17:52;26.42;;;10.98;;
57561;SDS011;43397;51.530;5.974;2023-05-17T03:20:17;31.23;;;12.65;;
57561;SDS011;43397;51.530;5.974;2023-05-17T03:22:43;31.23;;;12.68;;
57561;SDS011;43397;51.530;5.974;2023-05-17T03:25:10;26.50;;;12.85;;
57561;SDS011;43397;51.530;5.974;2023-05-17T03:27:36;35.97;;;14.80;;
57561;SDS011;43397;51.530;5.974;2023-05-17T03:30:02;33.33;;;14.60;;
57561;SDS011;43397;51.530;5.974;2023-05-17T03:32:28;29.58;;;14.55;;
57561;SDS011;43397;51.530;5.974;2023-05-17T03:34:53;27.58;;;14.60;;
57561;SDS011;43397;51.530;5.974;2023-05-17T03:37:19;34.42;;;12.95;;
57561;SDS011;43397;51.530;5.974;2023-05-17T03:39:45;32.45;;;13.77;;
57561;SDS011;43397;51.530;5.974;2023-05-17T03:42:12;32.85;;;13.48;;
57561;SDS011;43397;51.530;5.974;2023-05-17T03:44:38;28.95;;;12.80;;
57561;SDS011;43397;51.530;5.974;2023-05-17T03:47:04;28.48;;;12.85;;
57561;SDS011;43397;51.530;5.974;2023-05-17T03:49:30;33.35;;;13.43;;
57561;SDS011;43397;51.530;5.974;2023-05-17T03:51:56;31.08;;;11.65;;
57561;SDS011;43397;51.530;5.974;2023-05-17T03:54:21;21.30;;;12.38;;
57561;SDS011;43397;51.530;5.974;2023-05-17T03:56:47;32.25;;;13.00;;
57561;SDS011;43397;51.530;5.974;2023-05-17T03:59:14;31.10;;;12.93;;
57561;SDS011;43397;51.530;5.974;2023-05-17T04:01:40;25.60;;;13.48;;
57561;SDS011;43397;51.530;5.974;2023-05-17T04:04:07;31.40;;;13.50;;
57561;SDS011;43397;51.530;5.974;2023-05-17T04:06:32;28.40;;;12.82;;
57561;SDS011;43397;51.530;5.974;2023-05-17T04:08:58;28.17;;;12.45;;
57561;SDS011;43397;51.530;5.974;2023-05-17T04:11:24;25.52;;;11.43;;
57561;SDS011;43397;51.530;5.974;2023-05-17T04:13:49;30.23;;;12.35;;
57561;SDS011;43397;51.530;5.974;2023-05-17T04:16:16;25.52;;;11.65;;
57561;SDS011;43397;51.530;5.974;2023-05-17T04:18:42;28.05;;;11.20;;
57561;SDS011;43397;51.530;5.974;2023-05-17T04:21:08;22.88;;;11.40;;
57561;SDS011;43397;51.530;5.974;2023-05-17T04:23:33;25.13;;;12.13;;
57561;SDS011;43397;51.530;5.974;2023-05-17T04:25:59;26.85;;;11.52;;
57561;SDS011;43397;51.530;5.974;2023-05-17T04:28:25;22.77;;;11.82;;
57561;SDS011;43397;51.530;5.974;2023-05-17T04:30:50;23.10;;;11.40;;
57561;SDS011;43397;51.530;5.974;2023-05-17T04:33:17;25.58;;;12.82;;
57561;SDS011;43397;51.530;5.974;2023-05-17T04:35:44;33.42;;;13.02;;
57561;SDS011;43397;51.530;5.974;2023-05-17T04:38:09;30.40;;;12.40;;
57561;SDS011;43397;51.530;5.974;2023-05-17T04:40:35;30.10;;;12.88;;
57561;SDS011;43397;51.530;5.974;2023-05-17T04:43:01;26.08;;;12.07;;
57561;SDS011;43397;51.530;5.974;2023-05-17T04:45:27;33.03;;;12.95;;
57561;SDS011;43397;51.530;5.974;2023-05-17T04:47:52;32.80;;;13.52;;
57561;SDS011;43397;51.530;5.974;2023-05-17T04:50:19;30.52;;;13.35;;
57561;SDS011;43397;51.530;5.974;2023-05-17T04:52:45;33.33;;;13.30;;
57561;SDS011;43397;51.530;5.974;2023-05-17T04:55:12;28.90;;;14.77;;
57561;SDS011;43397;51.530;5.974;2023-05-17T04:57:37;32.28;;;14.13;;
57561;SDS011;43397;51.530;5.974;2023-05-17T05:00:04;28.45;;;13.57;;
57561;SDS011;43397;51.530;5.974;2023-05-17T05:02:30;33.60;;;13.75;;
57561;SDS011;43397;51.530;5.974;2023-05-17T05:04:56;36.70;;;14.43;;
57561;SDS011;43397;51.530;5.974;2023-05-17T05:07:23;30.40;;;14.80;;
57561;SDS011;43397;51.530;5.974;2023-05-17T05:09:49;30.40;;;15.35;;
57561;SDS011;43397;51.530;5.974;2023-05-17T05:12:14;31.60;;;14.23;;
57561;SDS011;43397;51.530;5.974;2023-05-17T05:14:40;29.65;;;13.75;;
57561;SDS011;43397;51.530;5.974;2023-05-17T05:17:06;26.20;;;12.13;;
57561;SDS011;43397;51.530;5.974;2023-05-17T05:19:32;25.15;;;12.57;;
57561;SDS011;43397;51.530;5.974;2023-05-17T05:21:58;26.40;;;13.10;;
57561;SDS011;43397;51.530;5.974;2023-05-17T05:24:25;26.02;;;12.35;;
57561;SDS011;43397;51.530;5.974;2023-05-17T05:26:51;24.67;;;11.65;;
57561;SDS011;43397;51.530;5.974;2023-05-17T05:29:16;29.52;;;11.80;;
57561;SDS011;43397;51.530;5.974;2023-05-17T05:31:42;26.50;;;11.45;;
57561;SDS011;43397;51.530;5.974;2023-05-17T05:34:08;28.05;;;12.38;;
57561;SDS011;43397;51.530;5.974;2023-05-17T05:36:34;25.90;;;12.15;;
57561;SDS011;43397;51.530;5.974;2023-05-17T05:38:59;22.25;;;11.15;;
57561;SDS011;43397;51.530;5.974;2023-05-17T05:41:26;21.67;;;9.55;;
57561;SDS011;43397;51.530;5.974;2023-05-17T05:43:52;18.25;;;8.60;;
57561;SDS011;43397;51.530;5.974;2023-05-17T05:46:18;17.38;;;8.93;;
57561;SDS011;43397;51.530;5.974;2023-05-17T05:48:44;19.30;;;9.63;;
57561;SDS011;43397;51.530;5.974;2023-05-17T05:51:09;13.52;;;7.97;;
57561;SDS011;43397;51.530;5.974;2023-05-17T05:53:35;19.17;;;8.77;;
57561;SDS011;43397;51.530;5.974;2023-05-17T05:56:02;17.13;;;8.23;;
57561;SDS011;43397;51.530;5.974;2023-05-17T05:58:29;17.38;;;9.30;;
57561;SDS011;43397;51.530;5.974;2023-05-17T06:00:55;17.02;;;7.95;;
57561;SDS011;43397;51.530;5.974;2023-05-17T06:03:21;17.98;;;7.97;;
57561;SDS011;43397;51.530;5.974;2023-05-17T06:05:47;15.18;;;6.57;;
57561;SDS011;43397;51.530;5.974;2023-05-17T06:08:12;20.58;;;7.78;;
57561;SDS011;43397;51.530;5.974;2023-05-17T06:10:38;17.17;;;7.53;;
57561;SDS011;43397;51.530;5.974;2023-05-17T06:13:04;14.88;;;5.63;;
57561;SDS011;43397;51.530;5.974;2023-05-17T06:15:31;20.42;;;6.72;;
57561;SDS011;43397;51.530;5.974;2023-05-17T06:17:56;15.13;;;6.28;;
57561;SDS011;43397;51.530;5.974;2023-05-17T06:20:22;15.65;;;6.82;;
57561;SDS011;43397;51.530;5.974;2023-05-17T06:22:48;13.90;;;6.40;;
57561;SDS011;43397;51.530;5.974;2023-05-17T06:25:14;12.77;;;6.25;;
57561;SDS011;43397;51.530;5.974;2023-05-17T06:27:39;18.00;;;6.53;;
57561;SDS011;43397;51.530;5.974;2023-05-17T06:30:05;12.02;;;5.90;;
57561;SDS011;43397;51.530;5.974;2023-05-17T06:32:33;16.30;;;5.88;;
57561;SDS011;43397;51.530;5.974;2023-05-17T06:34:59;15.00;;;5.28;;
57561;SDS011;43397;51.530;5.974;2023-05-17T06:37:25;17.30;;;6.03;;
57561;SDS011;43397;51.530;5.974;2023-05-17T06:39:50;14.68;;;5.45;;
57561;SDS011;43397;51.530;5.974;2023-05-17T06:42:16;12.93;;;6.05;;
57561;SDS011;43397;51.530;5.974;2023-05-17T06:44:42;15.02;;;5.53;;
57561;SDS011;43397;51.530;5.974;2023-05-17T06:47:08;17.60;;;5.85;;
57561;SDS011;43397;51.530;5.974;2023-05-17T06:49:35;14.63;;;5.53;;
57561;SDS011;43397;51.530;5.974;2023-05-17T06:52:02;11.65;;;4.45;;
57561;SDS011;43397;51.530;5.974;2023-05-17T06:54:27;13.93;;;4.03;;
57561;SDS011;43397;51.530;5.974;2023-05-17T06:56:53;11.80;;;4.10;;
57561;SDS011;43397;51.530;5.974;2023-05-17T06:59:19;12.93;;;3.95;;
57561;SDS011;43397;51.530;5.974;2023-05-17T07:01:45;12.65;;;3.15;;
57561;SDS011;43397;51.530;5.974;2023-05-17T07:04:10;16.10;;;4.38;;
57561;SDS011;43397;51.530;5.974;2023-05-17T07:06:37;12.73;;;3.80;;
57561;SDS011;43397;51.530;5.974;2023-05-17T07:09:03;13.00;;;4.55;;
57561;SDS011;43397;51.530;5.974;2023-05-17T07:11:28;9.88;;;2.85;;
57561;SDS011;43397;51.530;5.974;2023-05-17T07:13:54;13.63;;;4.68;;
57561;SDS011;43397;51.530;5.974;2023-05-17T07:16:20;12.13;;;3.30;;
57561;SDS011;43397;51.530;5.974;2023-05-17T07:18:45;13.25;;;2.85;;
57561;SDS011;43397;51.530;5.974;2023-05-17T07:21:11;11.43;;;2.70;;
57561;SDS011;43397;51.530;5.974;2023-05-17T07:23:38;13.02;;;2.60;;
57561;SDS011;43397;51.530;5.974;2023-05-17T07:26:04;13.20;;;2.70;;
57561;SDS011;43397;51.530;5.974;2023-05-17T07:28:29;10.68;;;3.10;;
57561;SDS011;43397;51.530;5.974;2023-05-17T07:30:55;9.57;;;2.95;;
57561;SDS011;43397;51.530;5.974;2023-05-17T07:33:21;14.15;;;3.03;;
57561;SDS011;43397;51.530;5.974;2023-05-17T07:35:46;8.98;;;2.22;;
57561;SDS011;43397;51.530;5.974;2023-05-17T07:38:12;12.57;;;2.55;;
57561;SDS011;43397;51.530;5.974;2023-05-17T07:40:39;10.10;;;2.50;;
57561;SDS011;43397;51.530;5.974;2023-05-17T07:43:05;8.27;;;1.98;;
57561;SDS011;43397;51.530;5.974;2023-05-17T07:45:30;10.82;;;2.75;;
57561;SDS011;43397;51.530;5.974;2023-05-17T07:47:56;12.70;;;2.92;;
57561;SDS011;43397;51.530;5.974;2023-05-17T07:50:22;11.63;;;2.78;;
57561;SDS011;43397;51.530;5.974;2023-05-17T07:52:48;11.45;;;2.63;;
57561;SDS011;43397;51.530;5.974;2023-05-17T07:55:13;11.73;;;2.80;;
57561;SDS011;43397;51.530;5.974;2023-05-17T07:57:40;11.13;;;2.78;;
57561;SDS011;43397;51.530;5.974;2023-05-17T08:00:06;14.05;;;3.00;;
57561;SDS011;43397;51.530;5.974;2023-05-17T08:02:33;13.73;;;3.60;;
57561;SDS011;43397;51.530;5.974;2023-05-17T08:04:58;13.52;;;3.88;;
57561;SDS011;43397;51.530;5.974;2023-05-17T08:07:24;13.85;;;3.25;;
57561;SDS011;43397;51.530;5.974;2023-05-17T08:09:50;13.57;;;3.30;;
57561;SDS011;43397;51.530;5.974;2023-05-17T08:12:15;11.57;;;3.53;;
57561;SDS011;43397;51.530;5.974;2023-05-17T08:14:42;12.88;;;3.63;;
57561;SDS011;43397;51.530;5.974;2023-05-17T08:17:08;15.00;;;3.28;;
57561;SDS011;43397;51.530;5.974;2023-05-17T08:19:34;9.63;;;2.60;;
57561;SDS011;43397;51.530;5.974;2023-05-17T08:21:59;15.77;;;3.50;;
57561;SDS011;43397;51.530;5.974;2023-05-17T08:24:25;11.18;;;2.67;;
57561;SDS011;43397;51.530;5.974;2023-05-17T08:26:51;15.25;;;3.42;;
57561;SDS011;43397;51.530;5.974;2023-05-17T08:29:17;14.85;;;2.67;;
57561;SDS011;43397;51.530;5.974;2023-05-17T08:31:44;10.95;;;3.03;;
57561;SDS011;43397;51.530;5.974;2023-05-17T08:34:09;13.02;;;3.60;;
57561;SDS011;43397;51.530;5.974;2023-05-17T08:36:35;9.95;;;2.63;;
57561;SDS011;43397;51.530;5.974;2023-05-17T08:39:01;9.75;;;2.90;;
57561;SDS011;43397;51.530;5.974;2023-05-17T08:41:27;10.52;;;2.58;;
57561;SDS011;43397;51.530;5.974;2023-05-17T08:43:52;9.10;;;2.35;;
57561;SDS011;43397;51.530;5.974;2023-05-17T08:46:19;9.38;;;2.50;;
57561;SDS011;43397;51.530;5.974;2023-05-17T08:48:48;10.00;;;2.80;;
57561;SDS011;43397;51.530;5.974;2023-05-17T08:51:14;11.50;;;2.80;;
57561;SDS011;43397;51.530;5.974;2023-05-17T08:53:41;8.95;;;2.80;;
57561;SDS011;43397;51.530;5.974;2023-05-17T08:56:07;9.23;;;3.53;;
57561;SDS011;43397;51.530;5.974;2023-05-17T08:58:36;9.13;;;2.45;;
57561;SDS011;43397;51.530;5.974;2023-05-17T09:01:05;9.68;;;2.45;;
57561;SDS011;43397;51.530;5.974;2023-05-17T09:03:31;10.23;;;2.60;;
57561;SDS011;43397;51.530;5.974;2023-05-17T09:06:00;9.50;;;2.35;;
57561;SDS011;43397;51.530;5.974;2023-05-17T09:08:26;8.60;;;2.20;;
57561;SDS011;43397;51.530;5.974;2023-05-17T09:10:53;11.65;;;2.60;;
57561;SDS011;43397;51.530;5.974;2023-05-17T09:13:18;11.07;;;2.00;;
57561;SDS011;43397;51.530;5.974;2023-05-17T09:15:46;9.88;;;1.80;;
57561;SDS011;43397;51.530;5.974;2023-05-17T09:18:12;10.20;;;2.38;;
57561;SDS011;43397;51.530;5.974;2023-05-17T09:20:38;10.10;;;2.50;;
57561;SDS011;43397;51.530;5.974;2023-05-17T09:23:06;10.27;;;3.00;;
57561;SDS011;43397;51.530;5.974;2023-05-17T09:25:33;8.23;;;2.10;;
57561;SDS011;43397;51.530;5.974;2023-05-17T09:28:00;10.90;;;2.17;;
57561;SDS011;43397;51.530;5.974;2023-05-17T09:30:26;9.02;;;2.13;;
57561;SDS011;43397;51.530;5.974;2023-05-17T09:32:53;8.30;;;2.10;;
57561;SDS011;43397;51.530;5.974;2023-05-17T09:35:18;10.80;;;2.88;;
57561;SDS011;43397;51.530;5.974;2023-05-17T09:37:44;8.07;;;2.53;;
57561;SDS011;43397;51.530;5.974;2023-05-17T09:40:20;9.55;;;2.60;;
57561;SDS011;43397;51.530;5.974;2023-05-17T09:42:46;8.15;;;2.20;;
57561;SDS011;43397;51.530;5.974;2023-05-17T09:45:12;7.78;;;2.72;;
57561;SDS011;43397;51.530;5.974;2023-05-17T09:47:45;8.57;;;2.20;;
57561;SDS011;43397;51.530;5.974;2023-05-17T09:50:11;6.60;;;1.73;;
57561;SDS011;43397;51.530;5.974;2023-05-17T09:52:42;8.48;;;1.90;;
57561;SDS011;43397;51.530;5.974;2023-05-17T09:55:08;7.72;;;1.80;;
57561;SDS011;43397;51.530;5.974;2023-05-17T09:57:36;9.00;;;1.92;;
57561;SDS011;43397;51.530;5.974;2023-05-17T10:00:04;7.50;;;1.92;;
57561;SDS011;43397;51.530;5.974;2023-05-17T10:02:31;6.93;;;1.48;;
57561;SDS011;43397;51.530;5.974;2023-05-17T10:04:59;10.63;;;2.33;;
57561;SDS011;43397;51.530;5.974;2023-05-17T10:09:54;9.38;;;2.55;;
57561;SDS011;43397;51.530;5.974;2023-05-17T10:12:21;8.57;;;2.10;;
57561;SDS011;43397;51.530;5.974;2023-05-17T10:14:49;6.75;;;1.88;;
57561;SDS011;43397;51.530;5.974;2023-05-17T10:17:15;6.50;;;1.80;;
57561;SDS011;43397;51.530;5.974;2023-05-17T10:19:42;8.73;;;1.90;;
57561;SDS011;43397;51.530;5.974;2023-05-17T10:22:08;6.15;;;1.90;;
57561;SDS011;43397;51.530;5.974;2023-05-17T10:24:34;6.30;;;1.50;;
57561;SDS011;43397;51.530;5.974;2023-05-17T10:27:00;6.97;;;1.83;;
57561;SDS011;43397;51.530;5.974;2023-05-17T10:29:26;7.07;;;1.67;;
57561;SDS011;43397;51.530;5.974;2023-05-17T10:31:54;7.55;;;1.80;;
57561;SDS011;43397;51.530;5.974;2023-05-17T10:34:22;7.18;;;1.88;;
57561;SDS011;43397;51.530;5.974;2023-05-17T10:36:52;9.07;;;2.05;;
57561;SDS011;43397;51.530;5.974;2023-05-17T10:39:18;5.40;;;1.65;;
57561;SDS011;43397;51.530;5.974;2023-05-17T10:41:45;8.30;;;1.95;;
57561;SDS011;43397;51.530;5.974;2023-05-17T10:44:13;7.32;;;1.83;;
57561;SDS011;43397;51.530;5.974;2023-05-17T10:46:42;8.38;;;2.15;;
57561;SDS011;43397;51.530;5.974;2023-05-17T10:49:17;7.00;;;2.00;;
57561;SDS011;43397;51.530;5.974;2023-05-17T10:51:43;5.60;;;1.60;;
57561;SDS011;43397;51.530;5.974;2023-05-17T10:54:10;7.03;;;2.30;;
57561;SDS011;43397;51.530;5.974;2023-05-17T10:56:38;10.82;;;2.47;;
57561;SDS011;43397;51.530;5.974;2023-05-17T11:01:53;7.57;;;1.77;;
57561;SDS011;43397;51.530;5.974;2023-05-17T11:04:24;8.85;;;2.63;;
57561;SDS011;43397;51.530;5.974;2023-05-17T11:06:51;6.20;;;2.23;;
57561;SDS011;43397;51.530;5.974;2023-05-17T11:09:17;7.93;;;1.67;;
57561;SDS011;43397;51.530;5.974;2023-05-17T11:14:41;6.30;;;1.40;;
57561;SDS011;43397;51.530;5.974;2023-05-17T11:17:16;6.82;;;1.85;;
57561;SDS011;43397;51.530;5.974;2023-05-17T11:19:49;6.32;;;1.70;;
57561;SDS011;43397;51.530;5.974;2023-05-17T11:22:21;11.13;;;2.45;;
57561;SDS011;43397;51.530;5.974;2023-05-17T11:24:47;6.97;;;1.90;;
57561;SDS011;43397;51.530;5.974;2023-05-17T11:27:16;9.10;;;3.00;;
57561;SDS011;43397;51.530;5.974;2023-05-17T11:29:45;8.45;;;1.95;;
57561;SDS011;43397;51.530;5.974;2023-05-17T11:32:11;9.38;;;1.90;;
57561;SDS011;43397;51.530;5.974;2023-05-17T11:34:37;9.07;;;2.65;;
57561;SDS011;43397;51.530;5.974;2023-05-17T11:37:04;11.73;;;2.80;;
57561;SDS011;43397;51.530;5.974;2023-05-17T11:39:35;5.15;;;1.73;;
57561;SDS011;43397;51.530;5.974;2023-05-17T11:42:01;7.22;;;1.73;;
57561;SDS011;43397;51.530;5.974;2023-05-17T11:44:27;7.70;;;1.95;;
57561;SDS011;43397;51.530;5.974;2023-05-17T11:47:00;6.20;;;1.50;;
57561;SDS011;43397;51.530;5.974;2023-05-17T11:49:26;6.97;;;1.52;;
57561;SDS011;43397;51.530;5.974;2023-05-17T11:51:54;6.20;;;1.45;;
57561;SDS011;43397;51.530;5.974;2023-05-17T11:54:21;13.55;;;3.40;;
57561;SDS011;43397;51.530;5.974;2023-05-17T11:56:48;7.00;;;2.10;;
57561;SDS011;43397;51.530;5.974;2023-05-17T11:59:17;6.53;;;1.50;;
57561;SDS011;43397;51.530;5.974;2023-05-17T12:01:44;8.55;;;1.88;;
57561;SDS011;43397;51.530;5.974;2023-05-17T12:04:11;9.60;;;2.05;;
57561;SDS011;43397;51.530;5.974;2023-05-17T12:06:36;7.63;;;1.98;;
57561;SDS011;43397;51.530;5.974;2023-05-17T12:09:03;8.98;;;2.20;;
57561;SDS011;43397;51.530;5.974;2023-05-17T12:11:30;10.15;;;3.80;;
57561;SDS011;43397;51.530;5.974;2023-05-17T12:13:55;7.15;;;3.05;;
57561;SDS011;43397;51.530;5.974;2023-05-17T12:16:21;9.20;;;2.20;;
57561;SDS011;43397;51.530;5.974;2023-05-17T12:18:49;6.70;;;1.98;;
57561;SDS011;43397;51.530;5.974;2023-05-17T12:21:15;9.25;;;1.85;;
57561;SDS011;43397;51.530;5.974;2023-05-17T12:23:42;13.05;;;2.72;;
57561;SDS011;43397;51.530;5.974;2023-05-17T12:26:09;10.48;;;2.10;;
57561;SDS011;43397;51.530;5.974;2023-05-17T12:28:37;10.60;;;2.25;;
57561;SDS011;43397;51.530;5.974;2023-05-17T12:31:05;6.22;;;2.00;;
57561;SDS011;43397;51.530;5.974;2023-05-17T12:33:35;7.60;;;1.70;;
57561;SDS011;43397;51.530;5.974;2023-05-17T12:36:02;5.10;;;1.77;;
57561;SDS011;43397;51.530;5.974;2023-05-17T12:38:30;7.75;;;2.03;;
57561;SDS011;43397;51.530;5.974;2023-05-17T12:40:57;8.23;;;1.73;;
57561;SDS011;43397;51.530;5.974;2023-05-17T12:43:24;6.15;;;1.50;;
57561;SDS011;43397;51.530;5.974;2023-05-17T12:45:52;5.70;;;1.98;;
57561;SDS011;43397;51.530;5.974;2023-05-17T12:48:18;6.40;;;1.73;;
57561;SDS011;43397;51.530;5.974;2023-05-17T12:50:47;7.10;;;1.80;;
57561;SDS011;43397;51.530;5.974;2023-05-17T12:53:13;6.90;;;1.88;;
57561;SDS011;43397;51.530;5.974;2023-05-17T12:55:39;8.30;;;1.52;;
57561;SDS011;43397;51.530;5.974;2023-05-17T12:58:04;5.38;;;1.85;;
57561;SDS011;43397;51.530;5.974;2023-05-17T13:00:30;5.00;;;2.00;;
57561;SDS011;43397;51.530;5.974;2023-05-17T13:02:58;6.68;;;1.90;;
57561;SDS011;43397;51.530;5.974;2023-05-17T13:05:24;6.60;;;1.42;;
57561;SDS011;43397;51.530;5.974;2023-05-17T13:07:49;6.75;;;1.48;;
57561;SDS011;43397;51.530;5.974;2023-05-17T13:10:18;4.18;;;1.48;;
57561;SDS011;43397;51.530;5.974;2023-05-17T13:12:53;7.25;;;1.95;;
57561;SDS011;43397;51.530;5.974;2023-05-17T13:15:19;6.07;;;1.92;;
57561;SDS011;43397;51.530;5.974;2023-05-17T13:17:46;6.70;;;2.05;;
57561;SDS011;43397;51.530;5.974;2023-05-17T13:20:13;6.57;;;2.03;;
57561;SDS011;43397;51.530;5.974;2023-05-17T13:22:39;12.63;;;2.15;;
57561;SDS011;43397;51.530;5.974;2023-05-17T13:25:05;16.35;;;2.55;;
57561;SDS011;43397;51.530;5.974;2023-05-17T13:27:31;6.80;;;2.03;;
57561;SDS011;43397;51.530;5.974;2023-05-17T13:29:57;7.82;;;2.28;;
57561;SDS011;43397;51.530;5.974;2023-05-17T13:32:22;7.75;;;2.10;;
57561;SDS011;43397;51.530;5.974;2023-05-17T13:34:48;6.63;;;2.25;;
57561;SDS011;43397;51.530;5.974;2023-05-17T13:37:15;7.30;;;2.60;;
57561;SDS011;43397;51.530;5.974;2023-05-17T13:39:40;9.30;;;2.35;;
57561;SDS011;43397;51.530;5.974;2023-05-17T13:42:06;7.43;;;2.15;;
57561;SDS011;43397;51.530;5.974;2023-05-17T13:44:32;7.20;;;2.20;;
57561;SDS011;43397;51.530;5.974;2023-05-17T13:46:58;7.57;;;1.90;;
57561;SDS011;43397;51.530;5.974;2023-05-17T13:49:23;9.63;;;2.35;;
57561;SDS011;43397;51.530;5.974;2023-05-17T13:51:49;12.73;;;2.40;;
57561;SDS011;43397;51.530;5.974;2023-05-17T13:54:16;8.70;;;1.83;;
57561;SDS011;43397;51.530;5.974;2023-05-17T13:56:42;7.47;;;2.25;;
57561;SDS011;43397;51.530;5.974;2023-05-17T13:59:07;8.15;;;2.47;;
57561;SDS011;43397;51.530;5.974;2023-05-17T14:01:33;10.68;;;2.55;;
57561;SDS011;43397;51.530;5.974;2023-05-17T14:03:59;8.25;;;2.33;;
57561;SDS011;43397;51.530;5.974;2023-05-17T14:06:24;6.57;;;2.30;;
57561;SDS011;43397;51.530;5.974;2023-05-17T14:08:50;21.60;;;3.90;;
57561;SDS011;43397;51.530;5.974;2023-05-17T14:11:17;11.95;;;2.55;;
57561;SDS011;43397;51.530;5.974;2023-05-17T14:13:42;8.30;;;2.47;;
57561;SDS011;43397;51.530;5.974;2023-05-17T14:16:08;9.52;;;2.70;;
57561;SDS011;43397;51.530;5.974;2023-05-17T14:18:34;9.00;;;2.47;;
57561;SDS011;43397;51.530;5.974;2023-05-17T14:20:59;9.30;;;2.42;;
57561;SDS011;43397;51.530;5.974;2023-05-17T14:23:25;8.07;;;2.60;;
57561;SDS011;43397;51.530;5.974;2023-05-17T14:25:51;7.70;;;2.22;;
57561;SDS011;43397;51.530;5.974;2023-05-17T14:28:18;9.38;;;2.63;;
57561;SDS011;43397;51.530;5.974;2023-05-17T14:30:44;9.30;;;2.67;;
57561;SDS011;43397;51.530;5.974;2023-05-17T14:33:09;9.15;;;2.45;;
57561;SDS011;43397;51.530;5.974;2023-05-17T14:35:35;11.15;;;3.17;;
57561;SDS011;43397;51.530;5.974;2023-05-17T14:38:01;11.80;;;2.80;;
57561;SDS011;43397;51.530;5.974;2023-05-17T14:40:27;10.02;;;3.08;;